createdAt,value
2018-09-28T00:00:25.533Z,17.45
2018-09-28T00:02:52.908Z,17.42
2018-09-28T00:05:20.275Z,16.60
2018-09-28T00:07:47.574Z,16.50
2018-09-28T00:10:14.937Z,18.40
2018-09-28T00:12:42.226Z,18.48
2018-09-28T00:15:09.790Z,20.90
2018-09-28T00:17:37.156Z,18.42
2018-09-28T00:20:04.557Z,17.80
2018-09-28T00:22:31.868Z,20.40
2018-09-28T00:24:59.243Z,17.55
2018-09-28T00:27:26.585Z,18.15
2018-09-28T00:29:54.602Z,18.42
2018-09-28T00:32:22.179Z,18.57
2018-09-28T00:34:49.995Z,15.93
2018-09-28T00:37:17.642Z,15.88
2018-09-28T00:39:46.406Z,21.55
2018-09-28T00:42:13.742Z,22.60
2018-09-28T00:44:41.063Z,17.32
2018-09-28T00:47:08.827Z,16.48
2018-09-28T00:49:36.134Z,19.23
2018-09-28T00:52:03.757Z,18.55
2018-09-28T00:54:31.098Z,21.00
2018-09-28T00:56:58.427Z,18.12
2018-09-28T00:59:25.740Z,17.52
2018-09-28T01:01:54.726Z,17.57
2018-09-28T01:04:22.519Z,19.90
2018-09-28T01:06:49.841Z,18.42
2018-09-28T01:09:17.577Z,18.30
2018-09-28T01:11:45.590Z,18.40
2018-09-28T01:14:12.904Z,20.75
2018-09-28T01:16:40.576Z,20.60
2018-09-28T01:19:08.266Z,20.08
2018-09-28T01:21:35.644Z,18.90
2018-09-28T01:24:02.973Z,21.95
2018-09-28T01:26:30.825Z,20.97
2018-09-28T01:28:58.157Z,23.55
2018-09-28T01:31:26.162Z,21.35
2018-09-28T01:33:53.501Z,21.90
2018-09-28T01:36:20.853Z,20.45
2018-09-28T01:38:48.287Z,19.50
2018-09-28T01:41:15.950Z,26.97
2018-09-28T01:43:43.783Z,23.12
2018-09-28T01:46:11.124Z,22.13
2018-09-28T01:48:38.848Z,25.35
2018-09-28T01:51:06.206Z,21.87
2018-09-28T01:53:33.546Z,22.25
2018-09-28T01:56:01.103Z,23.40
2018-09-28T01:58:28.695Z,22.95
2018-09-28T02:00:56.115Z,23.57
2018-09-28T02:03:23.692Z,24.05
2018-09-28T02:05:51.023Z,21.90
2018-09-28T02:08:18.574Z,24.90
2018-09-28T02:10:49.163Z,24.15
2018-09-28T02:13:16.859Z,27.00
2018-09-28T02:15:44.264Z,21.23
2018-09-28T02:18:11.642Z,23.27
2018-09-28T02:20:39.220Z,25.30
2018-09-28T02:23:06.596Z,22.77
2018-09-28T02:25:34.002Z,23.70
2018-09-28T02:28:01.596Z,27.62
2018-09-28T02:30:28.941Z,20.88
2018-09-28T02:32:56.521Z,22.65
2018-09-28T02:35:23.935Z,23.22
2018-09-28T02:37:51.490Z,22.93
2018-09-28T02:40:18.848Z,24.05
2018-09-28T02:42:46.205Z,23.65
2018-09-28T02:45:13.749Z,23.87
2018-09-28T02:47:41.178Z,26.05
2018-09-28T02:50:08.786Z,30.27
2018-09-28T02:52:36.391Z,24.85
2018-09-28T02:55:03.746Z,24.57
2018-09-28T02:57:31.100Z,26.65
2018-09-28T02:59:58.439Z,30.85
2018-09-28T03:02:25.798Z,26.50
2018-09-28T03:04:55.430Z,29.45
2018-09-28T03:07:23.206Z,28.98
2018-09-28T03:09:52.083Z,32.25
2018-09-28T03:12:19.414Z,30.75
2018-09-28T03:14:46.755Z,28.57
2018-09-28T03:17:14.329Z,28.15
2018-09-28T03:19:41.646Z,32.42
2018-09-28T03:22:08.970Z,31.95
2018-09-28T03:24:36.563Z,30.57
2018-09-28T03:27:04.483Z,30.82
2018-09-28T03:29:31.829Z,33.80
2018-09-28T03:31:59.186Z,30.35
2018-09-28T03:34:26.556Z,27.75
2018-09-28T03:36:53.987Z,31.35
2018-09-28T03:39:21.335Z,30.15
2018-09-28T03:41:48.705Z,30.92
2018-09-28T03:44:16.088Z,38.60
2018-09-28T03:46:43.646Z,29.42
2018-09-28T03:49:11.356Z,32.85
2018-09-28T03:51:39.004Z,34.60
2018-09-28T03:54:07.174Z,35.00
2018-09-28T03:56:34.502Z,34.08
2018-09-28T03:59:02.143Z,34.60
2018-09-28T04:01:29.711Z,38.67
2018-09-28T04:03:57.309Z,34.67
2018-09-28T04:06:25.199Z,31.20
2018-09-28T04:08:52.511Z,34.35
2018-09-28T04:11:20.103Z,36.70
2018-09-28T04:13:47.450Z,38.53
2018-09-28T04:16:14.767Z,36.28
2018-09-28T04:18:42.087Z,35.35
2018-09-28T04:21:09.419Z,40.60
2018-09-28T04:23:36.972Z,33.70
2018-09-28T04:26:04.326Z,38.17
2018-09-28T04:28:31.660Z,41.68
2018-09-28T04:30:59.035Z,39.98
2018-09-28T04:33:26.627Z,41.95
2018-09-28T04:35:54.191Z,39.63
2018-09-28T04:38:21.538Z,34.78
2018-09-28T04:40:48.855Z,41.45
2018-09-28T04:43:16.170Z,40.58
2018-09-28T04:45:43.576Z,39.15
2018-09-28T04:48:10.870Z,39.15
2018-09-28T04:50:38.739Z,36.35
2018-09-28T04:53:07.038Z,41.53
2018-09-28T04:55:34.785Z,39.03
2018-09-28T04:58:02.411Z,34.65
2018-09-28T05:00:30.145Z,38.10
2018-09-28T05:02:57.561Z,44.65
2018-09-28T05:05:24.933Z,42.05
2018-09-28T05:07:52.363Z,39.45
2018-09-28T05:10:19.916Z,40.78
2018-09-28T05:12:47.230Z,39.63
2018-09-28T05:15:14.589Z,35.60
2018-09-28T05:17:41.956Z,36.48
2018-09-28T05:20:10.045Z,37.55
2018-09-28T05:22:37.577Z,31.02
2018-09-28T05:25:05.173Z,28.40
2018-09-28T05:27:32.619Z,30.48
2018-09-28T05:29:59.949Z,27.10
2018-09-28T05:32:28.915Z,24.27
2018-09-28T05:34:56.391Z,21.82
2018-09-28T05:37:24.028Z,20.00
2018-09-28T05:39:51.312Z,19.37
2018-09-28T05:42:18.917Z,22.00
2018-09-28T05:44:46.383Z,17.42
2018-09-28T05:47:13.970Z,18.45
2018-09-28T05:49:41.290Z,19.20
2018-09-28T05:52:08.643Z,17.80
2018-09-28T05:54:36.188Z,11.93
2018-09-28T05:57:03.562Z,12.37
2018-09-28T05:59:36.241Z,11.78
2018-09-28T06:02:09.001Z,12.93
2018-09-28T06:04:41.701Z,15.18
2018-09-28T06:07:09.058Z,14.60
2018-09-28T06:09:36.680Z,14.05
2018-09-28T06:12:04.306Z,13.35
2018-09-28T06:14:31.666Z,9.63
2018-09-28T06:16:59.270Z,14.43
2018-09-28T06:19:26.641Z,11.35
2018-09-28T06:21:54.014Z,11.43
2018-09-28T06:24:21.569Z,9.15
2018-09-28T06:26:48.920Z,14.28
2018-09-28T06:29:16.501Z,12.07
2018-09-28T06:31:44.046Z,8.18
2018-09-28T06:34:11.888Z,8.60
2018-09-28T06:36:39.502Z,7.37
2018-09-28T06:39:07.394Z,10.98
2018-09-28T06:41:34.831Z,12.10
2018-09-28T06:44:02.220Z,6.97
2018-09-28T06:46:29.785Z,7.90
2018-09-28T06:48:57.226Z,15.23
2018-09-28T06:51:24.775Z,13.28
2018-09-28T06:53:52.075Z,13.22
2018-09-28T06:56:19.401Z,12.70
2018-09-28T06:58:47.054Z,8.30
2018-09-28T07:01:14.409Z,8.48
2018-09-28T07:03:42.108Z,13.30
2018-09-28T07:06:09.520Z,12.70
2018-09-28T07:08:36.914Z,11.45
2018-09-28T07:11:04.339Z,13.28
2018-09-28T07:13:31.694Z,10.15
2018-09-28T07:15:59.133Z,11.25
2018-09-28T07:18:26.645Z,10.90
2018-09-28T07:20:54.152Z,11.43
2018-09-28T07:23:21.732Z,9.80
2018-09-28T07:25:49.368Z,10.95
2018-09-28T07:28:16.959Z,12.65
2018-09-28T07:30:44.534Z,13.68
2018-09-28T07:33:12.168Z,12.55
2018-09-28T07:35:39.796Z,11.57
2018-09-28T07:38:07.173Z,14.00
2018-09-28T07:40:34.543Z,10.63
2018-09-28T07:43:01.953Z,9.00
2018-09-28T07:45:29.503Z,16.90
2018-09-28T07:47:56.931Z,15.40
2018-09-28T07:50:24.277Z,15.18
2018-09-28T07:52:51.868Z,15.88
2018-09-28T07:55:19.227Z,11.50
2018-09-28T07:57:46.850Z,8.13
2018-09-28T08:00:14.196Z,9.88
2018-09-28T08:02:41.764Z,12.78
2018-09-28T08:05:09.179Z,11.78
2018-09-28T08:07:37.120Z,13.03
2018-09-28T08:10:04.963Z,12.98
2018-09-28T08:12:32.871Z,11.53
2018-09-28T08:15:00.483Z,10.30
2018-09-28T08:17:27.807Z,8.35
2018-09-28T08:19:55.125Z,14.53
2018-09-28T08:22:22.508Z,15.32
2018-09-28T08:24:49.929Z,18.90
2018-09-28T08:27:18.401Z,8.15
2018-09-28T08:29:45.717Z,7.70
2018-09-28T08:32:13.081Z,17.02
2018-09-28T08:34:40.682Z,13.18
2018-09-28T08:37:08.317Z,13.50
2018-09-28T08:39:36.467Z,9.53
2018-09-28T08:42:03.823Z,10.63
2018-09-28T08:44:31.486Z,10.40
2018-09-28T08:46:58.813Z,8.63
2018-09-28T08:49:26.953Z,15.33
2018-09-28T08:51:54.329Z,11.53
2018-09-28T08:54:22.029Z,10.30
2018-09-28T08:56:49.376Z,13.67
2018-09-28T08:59:16.774Z,11.20
2018-09-28T09:01:44.128Z,9.93
2018-09-28T09:04:11.502Z,14.37
2018-09-28T09:06:38.880Z,8.60
2018-09-28T09:09:07.898Z,8.27
2018-09-28T09:11:35.237Z,13.47
2018-09-28T09:14:02.786Z,11.33
2018-09-28T09:16:30.138Z,8.90
2018-09-28T09:18:57.500Z,6.83
2018-09-28T09:21:24.923Z,10.60
2018-09-28T09:23:52.537Z,9.63
2018-09-28T09:26:19.878Z,8.93
2018-09-28T09:28:47.224Z,8.97
2018-09-28T09:31:14.694Z,10.23
2018-09-28T09:33:42.042Z,13.50
2018-09-28T09:36:09.437Z,9.00
2018-09-28T09:38:36.859Z,10.20
2018-09-28T09:41:04.214Z,10.00
2018-09-28T09:43:32.078Z,10.20
2018-09-28T09:46:00.170Z,7.20
2018-09-28T09:48:27.791Z,8.20
2018-09-28T09:50:55.870Z,10.80
2018-09-28T09:53:23.808Z,12.47
2018-09-28T09:55:51.491Z,10.80
2018-09-28T09:58:18.927Z,15.37
2018-09-28T10:00:51.772Z,7.60
2018-09-28T10:03:24.611Z,6.63
2018-09-28T10:05:52.484Z,9.97
2018-09-28T10:08:20.761Z,10.10
2018-09-28T10:10:48.441Z,10.37
2018-09-28T10:13:15.769Z,10.93
2018-09-28T10:15:43.835Z,6.87
2018-09-28T10:18:11.277Z,7.20
2018-09-28T10:20:39.577Z,9.30
2018-09-28T10:23:07.765Z,7.40
2018-09-28T10:25:35.098Z,6.10
2018-09-28T10:28:03.018Z,8.50
2018-09-28T10:30:33.224Z,9.80
2018-09-28T10:33:02.197Z,7.80
2018-09-28T10:35:30.782Z,8.07
2018-09-28T10:37:58.738Z,9.17
2018-09-28T10:40:27.677Z,7.67
2018-09-28T10:42:56.504Z,8.50
2018-09-28T10:45:26.006Z,6.97
2018-09-28T10:47:54.375Z,10.10
2018-09-28T10:50:22.386Z,10.30
2018-09-28T10:52:50.077Z,5.33
2018-09-28T10:55:17.370Z,5.70
2018-09-28T10:57:45.880Z,5.10
2018-09-28T11:00:13.562Z,5.30
2018-09-28T11:02:40.913Z,6.10
2018-09-28T11:05:10.840Z,6.50
2018-09-28T11:07:39.030Z,7.27
2018-09-28T11:10:10.477Z,7.37
2018-09-28T11:12:40.064Z,5.27
2018-09-28T11:15:08.871Z,6.93
2018-09-28T11:17:37.579Z,6.03
2018-09-28T11:20:05.210Z,6.63
2018-09-28T11:22:34.368Z,9.83
2018-09-28T11:25:02.763Z,7.50
2018-09-28T11:27:33.343Z,6.10
2018-09-28T11:30:01.373Z,8.87
2018-09-28T11:32:29.024Z,7.87
2018-09-28T11:34:56.372Z,6.83
2018-09-28T11:37:23.737Z,5.77
2018-09-28T11:39:51.717Z,7.30
2018-09-28T11:42:19.210Z,6.33
2018-09-28T11:44:46.602Z,5.17
2018-09-28T11:47:14.162Z,5.93
2018-09-28T11:49:41.552Z,6.30
2018-09-28T11:52:08.938Z,7.43
2018-09-28T11:54:36.543Z,9.63
2018-09-28T11:57:06.256Z,11.23
2018-09-28T11:59:37.114Z,4.53
2018-09-28T12:02:06.393Z,6.63
2018-09-28T12:04:34.360Z,7.30
2018-09-28T12:07:03.548Z,6.60
2018-09-28T12:09:31.871Z,5.93
2018-09-28T12:12:00.333Z,8.47
2018-09-28T12:14:27.679Z,7.00
2018-09-28T12:16:55.511Z,5.53
2018-09-28T12:19:22.891Z,5.30
2018-09-28T12:21:50.303Z,9.63
2018-09-28T12:24:17.652Z,5.90
2018-09-28T12:26:45.184Z,9.40
2018-09-28T12:29:12.755Z,5.73
2018-09-28T12:31:40.310Z,4.43
2018-09-28T12:34:07.726Z,8.70
2018-09-28T12:36:35.150Z,6.23
2018-09-28T12:39:02.538Z,3.30
2018-09-28T12:41:29.959Z,9.40
2018-09-28T12:43:57.348Z,4.83
2018-09-28T12:46:24.666Z,5.00
2018-09-28T12:48:52.096Z,4.17
2018-09-28T12:51:19.442Z,5.37
2018-09-28T12:53:46.842Z,4.33
2018-09-28T12:56:15.163Z,6.73
2018-09-28T12:58:42.695Z,7.93
2018-09-28T13:01:10.152Z,3.73
2018-09-28T13:03:38.804Z,6.47
2018-09-28T13:06:06.240Z,6.67
2018-09-28T13:08:33.691Z,6.80
2018-09-28T13:11:01.165Z,9.03
2018-09-28T13:13:28.746Z,5.43
2018-09-28T13:15:56.132Z,9.20
2018-09-28T13:18:23.883Z,7.70
2018-09-28T13:20:51.260Z,4.93
2018-09-28T13:23:19.646Z,4.57
2018-09-28T13:25:47.192Z,5.80
2018-09-28T13:28:14.779Z,4.60
2018-09-28T13:30:42.373Z,6.67
2018-09-28T13:33:09.856Z,5.10
2018-09-28T13:35:37.285Z,12.77
2018-09-28T13:38:06.133Z,5.60
2018-09-28T13:40:33.677Z,4.23
2018-09-28T13:43:01.560Z,5.63
2018-09-28T13:45:29.381Z,6.57
2018-09-28T13:47:58.240Z,4.77
2018-09-28T13:50:25.616Z,6.40
2018-09-28T13:52:53.884Z,17.33
2018-09-28T13:55:21.285Z,5.17
2018-09-28T13:57:48.753Z,13.03
2018-09-28T14:00:16.132Z,5.03
2018-09-28T14:02:43.869Z,6.40
2018-09-28T14:05:11.195Z,5.80
2018-09-28T14:07:38.502Z,5.67
2018-09-28T14:10:06.982Z,9.80
2018-09-28T14:12:34.696Z,7.30
2018-09-28T14:15:02.022Z,9.00
2018-09-28T14:17:29.389Z,8.33
2018-09-28T14:19:56.785Z,5.53
2018-09-28T14:22:24.215Z,8.85
2018-09-28T14:24:51.810Z,3.55
2018-09-28T14:27:19.199Z,4.35
2018-09-28T14:29:47.156Z,6.58
2018-09-28T14:32:15.171Z,7.08
2018-09-28T14:34:42.599Z,5.05
2018-09-28T14:37:10.169Z,6.35
2018-09-28T14:39:37.511Z,10.20
2018-09-28T14:42:04.853Z,4.85
2018-09-28T14:44:32.215Z,4.58
2018-09-28T14:46:59.851Z,7.95
2018-09-28T14:49:27.468Z,4.60
2018-09-28T14:51:55.099Z,5.65
2018-09-28T14:54:22.723Z,5.92
2018-09-28T14:56:50.137Z,5.75
2018-09-28T14:59:17.674Z,6.62
2018-09-28T15:01:45.292Z,5.20
2018-09-28T15:04:12.623Z,4.92
2018-09-28T15:06:40.437Z,6.10
2018-09-28T15:09:07.806Z,7.83
2018-09-28T15:11:36.160Z,6.72
2018-09-28T15:14:03.805Z,6.70
2018-09-28T15:16:31.194Z,6.72
2018-09-28T15:18:58.530Z,5.25
2018-09-28T15:21:25.880Z,5.33
2018-09-28T15:23:53.561Z,6.35
2018-09-28T15:26:20.884Z,4.25
2018-09-28T15:28:48.461Z,8.48
2018-09-28T15:31:15.798Z,6.45
2018-09-28T15:33:43.358Z,5.17
2018-09-28T15:36:10.714Z,8.38
2018-09-28T15:38:38.083Z,5.08
2018-09-28T15:41:05.703Z,5.08
2018-09-28T15:43:33.025Z,4.62
2018-09-28T15:46:01.563Z,3.37
2018-09-28T15:48:29.089Z,6.47
2018-09-28T15:50:56.650Z,5.30
2018-09-28T15:53:24.158Z,6.17
2018-09-28T15:55:51.624Z,3.65
2018-09-28T15:58:19.095Z,4.53
2018-09-28T16:00:46.676Z,3.55
2018-09-28T16:03:14.224Z,4.20
2018-09-28T16:05:41.795Z,6.20
2018-09-28T16:08:10.036Z,5.83
2018-09-28T16:10:37.618Z,6.92
2018-09-28T16:13:05.139Z,5.22
2018-09-28T16:15:32.548Z,4.12
2018-09-28T16:18:00.167Z,7.45
2018-09-28T16:20:27.501Z,5.03
2018-09-28T16:22:55.425Z,7.92
2018-09-28T16:25:22.915Z,5.62
2018-09-28T16:27:50.515Z,7.72
2018-09-28T16:30:18.111Z,5.97
2018-09-28T16:32:45.666Z,5.90
2018-09-28T16:35:13.195Z,4.65
2018-09-28T16:37:40.771Z,6.08
2018-09-28T16:40:08.331Z,5.08
2018-09-28T16:42:35.967Z,4.28
2018-09-28T16:45:03.811Z,5.45
2018-09-28T16:47:31.410Z,6.67
2018-09-28T16:49:58.996Z,11.08
2018-09-28T16:52:27.211Z,5.17
2018-09-28T16:54:54.766Z,11.08
2018-09-28T16:57:22.621Z,7.28
2018-09-28T16:59:55.025Z,7.33
2018-09-28T17:02:22.725Z,6.15
2018-09-28T17:04:50.276Z,12.03
2018-09-28T17:07:17.812Z,7.80
2018-09-28T17:09:45.341Z,8.60
2018-09-28T17:12:12.940Z,5.60
2018-09-28T17:14:41.902Z,6.92
2018-09-28T17:17:09.449Z,7.28
2018-09-28T17:19:38.785Z,8.00
2018-09-28T17:22:06.381Z,9.85
2018-09-28T17:24:33.902Z,10.38
2018-09-28T17:27:16.305Z,5.58
2018-09-28T17:29:47.156Z,5.40
2018-09-28T17:32:16.621Z,4.83
2018-09-28T17:34:46.541Z,8.08
2018-09-28T17:37:16.745Z,4.72
2018-09-28T17:39:48.142Z,16.48
2018-09-28T17:42:18.832Z,6.78
2018-09-28T17:44:48.675Z,9.88
2018-09-28T17:47:19.640Z,9.30
2018-09-28T17:49:49.397Z,8.60
2018-09-28T17:52:19.471Z,5.33
2018-09-28T17:54:49.523Z,5.75
2018-09-28T17:57:17.205Z,12.73
2018-09-28T17:59:48.519Z,10.38
2018-09-28T18:02:16.175Z,6.92
2018-09-28T18:04:43.896Z,7.28
2018-09-28T18:07:11.406Z,7.25
2018-09-28T18:09:40.225Z,8.43
2018-09-28T18:12:07.959Z,3.25
2018-09-28T18:14:35.502Z,5.90
2018-09-28T18:17:03.105Z,5.58
2018-09-28T18:19:30.635Z,8.03
2018-09-28T18:21:58.228Z,6.85
2018-09-28T18:24:26.028Z,6.15
2018-09-28T18:26:53.696Z,5.55
2018-09-28T18:29:21.422Z,6.58
2018-09-28T18:31:49.491Z,5.60
2018-09-28T18:34:17.034Z,6.70
2018-09-28T18:36:45.186Z,6.67
2018-09-28T18:39:13.263Z,4.90
2018-09-28T18:41:42.140Z,6.87
2018-09-28T18:44:09.726Z,8.25
2018-09-28T18:46:37.232Z,6.47
2018-09-28T18:49:04.818Z,6.40
2018-09-28T18:51:32.329Z,8.58
2018-09-28T18:54:00.018Z,4.60
2018-09-28T18:56:34.191Z,6.60
2018-09-28T18:59:02.030Z,4.12
2018-09-28T19:01:37.708Z,10.18
2018-09-28T19:04:05.747Z,5.10
2018-09-28T19:06:33.224Z,11.97
2018-09-28T19:09:00.669Z,8.85
2018-09-28T19:11:28.142Z,6.12
2018-09-28T19:13:56.982Z,15.45
2018-09-28T19:16:24.457Z,5.03
2018-09-28T19:18:51.851Z,6.87
2018-09-28T19:21:19.444Z,4.83
2018-09-28T19:23:47.444Z,10.20
2018-09-28T19:26:14.914Z,8.48
2018-09-28T19:28:42.844Z,11.78
2018-09-28T19:31:11.763Z,7.53
2018-09-28T19:33:39.819Z,11.00
2018-09-28T19:36:07.811Z,10.20
2018-09-28T19:38:36.453Z,8.65
2018-09-28T19:41:04.017Z,6.15
2018-09-28T19:43:31.470Z,5.87
2018-09-28T19:45:58.974Z,12.00
2018-09-28T19:48:26.367Z,5.42
2018-09-28T19:50:53.787Z,7.55
2018-09-28T19:53:21.292Z,6.12
2018-09-28T19:55:48.743Z,9.95
2018-09-28T19:58:17.676Z,10.23
2018-09-28T20:00:45.257Z,12.00
2018-09-28T20:03:12.769Z,7.78
2018-09-28T20:05:40.199Z,7.40
2018-09-28T20:08:07.820Z,6.47
2018-09-28T20:10:35.255Z,7.00
2018-09-28T20:13:02.883Z,5.30
2018-09-28T20:15:30.263Z,9.45
2018-09-28T20:17:57.748Z,8.75
2018-09-28T20:20:25.310Z,6.53
2018-09-28T20:22:52.714Z,7.78
2018-09-28T20:25:20.230Z,6.95
2018-09-28T20:27:48.537Z,9.13
2018-09-28T20:30:16.319Z,10.68
2018-09-28T20:32:43.834Z,8.25
2018-09-28T20:35:11.429Z,10.90
2018-09-28T20:37:38.929Z,7.30
2018-09-28T20:40:08.057Z,6.40
2018-09-28T20:42:35.882Z,8.08
2018-09-28T20:45:05.222Z,10.40
2018-09-28T20:47:34.004Z,9.00
2018-09-28T20:50:02.037Z,8.28
2018-09-28T20:52:31.815Z,12.63
2018-09-28T20:55:00.580Z,11.70
2018-09-28T20:57:30.872Z,8.90
2018-09-28T21:00:00.955Z,10.18
2018-09-28T21:02:28.639Z,8.88
2018-09-28T21:04:58.013Z,11.40
2018-09-28T21:07:26.461Z,6.20
2018-09-28T21:09:55.913Z,9.80
2018-09-28T21:12:25.079Z,8.90
2018-09-28T21:14:53.232Z,12.30
2018-09-28T21:17:21.632Z,10.15
2018-09-28T21:19:49.656Z,9.45
2018-09-28T21:22:17.547Z,9.48
2018-09-28T21:24:47.803Z,14.70
2018-09-28T21:27:18.239Z,6.67
2018-09-28T21:29:47.111Z,9.78
2018-09-28T21:32:17.228Z,8.40
2018-09-28T21:34:46.903Z,10.48
2018-09-28T21:37:16.542Z,9.35
2018-09-28T21:39:47.295Z,11.40
2018-09-28T21:42:17.083Z,12.18
2018-09-28T21:44:46.498Z,6.90
2018-09-28T21:47:13.954Z,6.55
2018-09-28T21:49:41.312Z,4.33
2018-09-28T21:52:08.687Z,9.13
2018-09-28T21:54:36.057Z,12.10
2018-09-28T21:57:03.435Z,10.88
2018-09-28T21:59:31.054Z,7.45
2018-09-28T22:01:58.690Z,6.72
2018-09-28T22:04:26.054Z,13.95
2018-09-28T22:06:53.405Z,11.95
2018-09-28T22:09:20.985Z,8.18
2018-09-28T22:11:48.383Z,11.45
2018-09-28T22:14:15.959Z,6.72
2018-09-28T22:16:43.348Z,9.80
2018-09-28T22:19:10.779Z,7.65
2018-09-28T22:21:38.188Z,7.72
2018-09-28T22:24:06.737Z,9.73
2018-09-28T22:26:34.162Z,9.43
2018-09-28T22:29:01.511Z,10.03
2018-09-28T22:31:28.865Z,11.78
2018-09-28T22:33:56.262Z,9.35
2018-09-28T22:36:23.588Z,7.83
2018-09-28T22:38:51.453Z,9.68
2018-09-28T22:41:19.035Z,8.75
2018-09-28T22:43:46.713Z,13.03
2018-09-28T22:46:14.027Z,11.28
2018-09-28T22:48:41.897Z,11.33
2018-09-28T22:51:09.495Z,6.87
2018-09-28T22:53:37.094Z,7.33
2018-09-28T22:56:04.450Z,6.22
2018-09-28T22:58:32.239Z,10.72
2018-09-28T23:00:59.647Z,9.98
2018-09-28T23:03:26.939Z,7.22
2018-09-28T23:05:54.318Z,10.98
2018-09-28T23:08:22.807Z,7.92
2018-09-28T23:10:50.770Z,9.23
2018-09-28T23:13:18.507Z,6.97
2018-09-28T23:15:46.156Z,11.95
2018-09-28T23:18:14.139Z,9.80
2018-09-28T23:20:41.931Z,9.58
2018-09-28T23:23:09.334Z,9.23
2018-09-28T23:25:36.693Z,12.82
2018-09-28T23:28:04.042Z,6.05
2018-09-28T23:30:31.456Z,9.58
2018-09-28T23:32:59.032Z,11.20
2018-09-28T23:35:26.383Z,11.38
2018-09-28T23:37:54.231Z,7.65
2018-09-28T23:40:21.855Z,7.45
2018-09-28T23:42:49.188Z,8.75
2018-09-28T23:45:16.579Z,6.67
2018-09-28T23:47:43.939Z,9.78
2018-09-28T23:50:11.325Z,10.82
2018-09-28T23:52:38.665Z,6.87
2018-09-28T23:55:06.057Z,8.88
2018-09-28T23:57:33.643Z,11.00
